createdAt,value
2019-03-11T00:02:44.416Z,100425.70
2019-03-11T00:03:48.314Z,100420.81
2019-03-11T00:06:35.184Z,100422.77
2019-03-11T00:07:39.331Z,100422.51
2019-03-11T00:08:43.221Z,100417.57
2019-03-11T00:09:47.408Z,100417.10
2019-03-11T00:13:31.841Z,100421.54
2019-03-11T00:14:35.804Z,100415.77
2019-03-11T00:15:39.890Z,100420.34
2019-03-11T00:16:43.784Z,100424.34
2019-03-11T00:17:47.620Z,100414.00
2019-03-11T00:18:51.690Z,100418.71
2019-03-11T00:19:55.576Z,100416.48
2019-03-11T00:20:59.848Z,100411.17
2019-03-11T00:22:03.938Z,100409.92
2019-03-11T00:23:08.462Z,100406.42
2019-03-11T00:24:12.567Z,100411.00
2019-03-11T00:25:35.656Z,100411.05
2019-03-11T00:26:39.872Z,100407.09
2019-03-11T00:28:02.888Z,100403.13
2019-03-11T00:29:07.097Z,100404.06
2019-03-11T00:30:30.146Z,100401.05
2019-03-11T00:31:34.304Z,100407.85
2019-03-11T00:32:38.211Z,100399.83
2019-03-11T00:33:42.030Z,100399.36
2019-03-11T00:34:46.228Z,100399.83
2019-03-11T00:35:50.044Z,100407.05
2019-03-11T00:36:54.326Z,100400.77
2019-03-11T00:37:58.219Z,100401.28
2019-03-11T00:40:25.487Z,100394.53
2019-03-11T00:41:29.667Z,100395.59
2019-03-11T00:42:52.684Z,100397.00
2019-03-11T00:43:56.842Z,100401.09
2019-03-11T00:45:00.739Z,100400.69
2019-03-11T00:46:24.049Z,100395.80
2019-03-11T00:48:51.491Z,100401.66
2019-03-11T00:50:15.115Z,100396.86
2019-03-11T00:53:06.571Z,100401.84
2019-03-11T00:54:10.400Z,100398.83
2019-03-11T00:55:53.882Z,100396.72
2019-03-11T00:58:06.977Z,100388.25
2019-03-11T00:59:11.490Z,100390.44
2019-03-11T01:00:35.119Z,100391.47
2019-03-11T01:01:58.265Z,100385.14
2019-03-11T01:03:21.285Z,100380.34
2019-03-11T01:04:44.416Z,100378.56
2019-03-11T01:05:48.819Z,100379.92
2019-03-11T01:08:02.492Z,100385.87
2019-03-11T01:09:46.662Z,100379.87
2019-03-11T01:11:09.623Z,100375.03
2019-03-11T01:13:41.961Z,100384.24
2019-03-11T01:15:04.845Z,100377.91
2019-03-11T01:16:27.863Z,100381.03
2019-03-11T01:17:32.001Z,100380.70
2019-03-11T01:18:55.023Z,100375.36
2019-03-11T01:20:18.118Z,100371.73
2019-03-11T01:21:41.006Z,100375.21
2019-03-11T01:23:04.136Z,100375.72
2019-03-11T01:24:08.307Z,100374.80
2019-03-11T01:25:12.810Z,100368.14
2019-03-11T01:26:16.625Z,100366.92
2019-03-11T01:27:20.706Z,100362.87
2019-03-11T01:28:24.678Z,100361.91
2019-03-11T01:29:28.507Z,100369.13
2019-03-11T01:30:32.465Z,100353.42
2019-03-11T01:31:36.291Z,100352.87
2019-03-11T01:32:40.519Z,100356.00
2019-03-11T01:33:44.370Z,100356.31
2019-03-11T01:34:48.429Z,100351.80
2019-03-11T01:35:52.629Z,100354.83
2019-03-11T01:37:16.010Z,100359.72
2019-03-11T01:38:20.394Z,100356.37
2019-03-11T01:40:47.463Z,100349.52
2019-03-11T01:41:51.630Z,100352.03
2019-03-11T01:43:15.293Z,100348.41
2019-03-11T01:44:19.575Z,100333.81
2019-03-11T01:45:42.595Z,100340.02
2019-03-11T01:46:46.668Z,100338.28
2019-03-11T01:47:50.834Z,100330.98
2019-03-11T01:49:14.290Z,100331.30
2019-03-11T01:50:37.567Z,100325.75
2019-03-11T01:52:00.662Z,100320.72
2019-03-11T01:53:23.695Z,100312.45
2019-03-11T01:54:46.975Z,100298.39
2019-03-11T01:56:10.574Z,100301.75
2019-03-11T01:57:33.885Z,100292.72
2019-03-11T01:58:38.297Z,100285.97
2019-03-11T01:59:42.186Z,100284.00
2019-03-11T02:00:46.409Z,100283.59
2019-03-11T02:01:50.626Z,100277.20
2019-03-11T02:02:54.945Z,100283.02
2019-03-11T02:03:59.015Z,100269.51
2019-03-11T02:05:02.917Z,100271.69
2019-03-11T02:06:07.063Z,100280.63
2019-03-11T02:07:11.133Z,100280.53
2019-03-11T02:08:15.355Z,100267.11
2019-03-11T02:09:19.752Z,100274.25
2019-03-11T02:10:23.885Z,100268.79
2019-03-11T02:11:27.777Z,100269.20
2019-03-11T02:12:31.849Z,100259.70
2019-03-11T02:13:54.888Z,100267.75
2019-03-11T02:15:17.783Z,100261.73
2019-03-11T02:18:03.848Z,100263.97
2019-03-11T02:19:07.927Z,100254.92
2019-03-11T02:20:30.944Z,100259.80
2019-03-11T02:21:53.964Z,100257.92
2019-03-11T02:22:58.494Z,100250.14
2019-03-11T02:24:02.325Z,100242.86
2019-03-11T02:26:48.361Z,100243.16
2019-03-11T02:27:52.558Z,100235.05
2019-03-11T02:28:56.391Z,100228.30
2019-03-11T02:31:42.380Z,100235.05
2019-03-11T02:32:46.617Z,100225.59
2019-03-11T02:33:50.519Z,100224.30
2019-03-11T02:36:36.876Z,100227.33
2019-03-11T02:38:00.089Z,100220.92
2019-03-11T02:39:45.482Z,100213.81
2019-03-11T02:40:49.921Z,100218.34
2019-03-11T02:43:35.906Z,100209.91
2019-03-11T02:44:59.187Z,100204.97
2019-03-11T02:47:45.145Z,100203.73
2019-03-11T02:48:49.340Z,100201.50
2019-03-11T02:49:53.832Z,100202.44
2019-03-11T02:51:16.721Z,100196.09
2019-03-11T02:52:40.004Z,100197.86
2019-03-11T02:54:03.332Z,100196.92
2019-03-11T02:55:26.630Z,100200.97
2019-03-11T02:56:50.097Z,100191.92
2019-03-11T02:58:13.515Z,100197.45
2019-03-11T02:59:36.845Z,100188.88
2019-03-11T03:00:40.944Z,100203.80
2019-03-11T03:02:03.765Z,100194.42
2019-03-11T03:03:45.761Z,100198.95
2019-03-11T03:06:26.242Z,100196.04
2019-03-11T03:07:30.312Z,100190.69
2019-03-11T03:08:53.265Z,100190.16
2019-03-11T03:10:16.361Z,100193.28
2019-03-11T03:11:39.543Z,100187.05
2019-03-11T03:12:43.794Z,100183.88
2019-03-11T03:13:47.865Z,100183.35
2019-03-11T03:15:10.948Z,100187.34
2019-03-11T03:16:15.051Z,100192.75
2019-03-11T03:17:18.883Z,100184.17
2019-03-11T03:18:42.075Z,100181.80
2019-03-11T03:19:46.174Z,100190.73
2019-03-11T03:21:09.221Z,100181.38
2019-03-11T03:22:32.465Z,100180.50
2019-03-11T03:23:36.913Z,100183.20
2019-03-11T03:24:40.730Z,100187.67
2019-03-11T03:25:44.635Z,100180.03
2019-03-11T03:26:48.869Z,100170.45
2019-03-11T03:27:53.225Z,100178.97
2019-03-11T03:28:57.086Z,100176.27
2019-03-11T03:30:00.996Z,100172.63
2019-03-11T03:31:04.895Z,100178.86
2019-03-11T03:32:08.877Z,100172.95
2019-03-11T03:33:13.329Z,100176.95
2019-03-11T03:34:17.386Z,100179.88
2019-03-11T03:35:21.477Z,100177.30
2019-03-11T03:36:25.685Z,100175.59
2019-03-11T03:37:29.585Z,100172.48
2019-03-11T03:38:33.736Z,100175.18
2019-03-11T03:39:38.255Z,100168.42
2019-03-11T03:41:01.206Z,100165.72
2019-03-11T03:43:47.669Z,100176.83
2019-03-11T03:45:29.822Z,100184.05
2019-03-11T03:46:52.836Z,100175.06
2019-03-11T03:48:16.207Z,100161.55
2019-03-11T03:49:40.706Z,100156.08
2019-03-11T03:51:03.681Z,100162.90
2019-03-11T03:52:07.584Z,100157.61
2019-03-11T03:53:30.592Z,100149.13
2019-03-11T03:54:53.615Z,100161.81
2019-03-11T03:56:16.675Z,100161.81
2019-03-11T03:57:39.829Z,100148.77
2019-03-11T03:58:44.264Z,100149.36
2019-03-11T03:59:48.868Z,100157.06
2019-03-11T04:00:52.698Z,100169.31
2019-03-11T04:03:38.611Z,100140.05
2019-03-11T04:04:42.544Z,100140.99
2019-03-11T04:06:05.853Z,100122.13
2019-03-11T04:07:10.300Z,100138.87
2019-03-11T04:08:14.445Z,100143.46
2019-03-11T04:09:18.261Z,100151.56
2019-03-11T04:10:22.722Z,100138.27
2019-03-11T04:11:26.702Z,100137.84
2019-03-11T04:12:30.593Z,100145.37
2019-03-11T04:13:34.490Z,100139.14
2019-03-11T04:14:38.892Z,100145.58
2019-03-11T04:15:42.715Z,100142.05
2019-03-11T04:16:46.776Z,100141.26
2019-03-11T04:17:50.770Z,100140.44
2019-03-11T04:18:56.157Z,100131.98
2019-03-11T04:20:00.527Z,100119.81
2019-03-11T04:21:04.971Z,100129.02
2019-03-11T04:22:09.201Z,100122.26
2019-03-11T04:23:13.439Z,100135.67
2019-03-11T04:24:17.648Z,100123.20
2019-03-11T04:25:21.547Z,100136.65
2019-03-11T04:26:30.168Z,100137.50
2019-03-11T04:27:34.116Z,100134.20
2019-03-11T04:28:57.760Z,100126.31
2019-03-11T04:31:45.695Z,100118.20
2019-03-11T04:33:08.716Z,100115.41
2019-03-11T04:34:32.006Z,100128.04
2019-03-11T04:35:55.178Z,100117.17
2019-03-11T04:37:18.490Z,100118.32
2019-03-11T04:38:41.375Z,100118.20
2019-03-11T04:41:08.400Z,100127.58
2019-03-11T04:42:31.895Z,100132.98
2019-03-11T04:43:35.883Z,100120.73
2019-03-11T04:44:39.705Z,100120.26
2019-03-11T04:45:44.182Z,100111.36
2019-03-11T04:46:48.157Z,100114.06
2019-03-11T04:47:52.315Z,100122.96
2019-03-11T04:48:56.140Z,100119.79
2019-03-11T04:50:00.683Z,100113.66
2019-03-11T04:51:04.538Z,100128.92
2019-03-11T04:52:08.933Z,100113.91
2019-03-11T04:53:12.767Z,100126.63
2019-03-11T04:54:35.781Z,100132.83
2019-03-11T04:55:39.998Z,100127.84
2019-03-11T04:56:44.231Z,100119.26
2019-03-11T04:58:07.339Z,100126.42
2019-03-11T05:01:15.246Z,100125.02
2019-03-11T05:02:19.211Z,100125.44
2019-03-11T05:03:42.858Z,100123.78
2019-03-11T05:04:47.231Z,100101.23
2019-03-11T05:07:33.621Z,100116.30
2019-03-11T05:08:37.534Z,100143.31
2019-03-11T05:09:41.979Z,100138.11
2019-03-11T05:10:45.954Z,100132.66
2019-03-11T05:11:49.779Z,100152.03
2019-03-11T05:12:53.743Z,100143.58
2019-03-11T05:13:57.847Z,100143.11
2019-03-11T05:16:43.887Z,100125.52
2019-03-11T05:17:48.936Z,100131.86
2019-03-11T05:18:54.075Z,100147.53
2019-03-11T05:19:57.969Z,100137.30
2019-03-11T05:21:02.125Z,100138.84
2019-03-11T05:22:06.519Z,100154.29
2019-03-11T05:23:10.591Z,100139.64
2019-03-11T05:24:14.419Z,100139.58
2019-03-11T05:25:18.383Z,100143.48
2019-03-11T05:26:22.279Z,100139.08
2019-03-11T05:27:26.762Z,100149.88
2019-03-11T05:28:30.835Z,100145.36
2019-03-11T05:29:34.898Z,100135.37
2019-03-11T05:30:39.120Z,100132.16
2019-03-11T05:31:42.938Z,100133.91
2019-03-11T05:32:47.117Z,100146.39
2019-03-11T05:33:51.012Z,100143.46
2019-03-11T05:34:54.906Z,100145.87
2019-03-11T05:35:58.737Z,100152.56
2019-03-11T05:37:03.062Z,100170.13
2019-03-11T05:38:07.187Z,100155.84
2019-03-11T05:39:11.015Z,100171.48
2019-03-11T05:40:14.983Z,100169.86
2019-03-11T05:41:19.117Z,100174.76
2019-03-11T05:42:23.260Z,100172.62
2019-03-11T05:43:27.160Z,100178.28
2019-03-11T05:44:31.057Z,100180.36
2019-03-11T05:45:35.688Z,100182.54
2019-03-11T05:46:39.763Z,100184.26
2019-03-11T05:47:44.226Z,100184.93
2019-03-11T05:48:48.074Z,100177.41
2019-03-11T05:49:52.208Z,100180.63
2019-03-11T05:50:56.348Z,100180.68
2019-03-11T05:52:00.235Z,100178.95
2019-03-11T05:53:04.370Z,100183.80
2019-03-11T05:54:08.281Z,100190.60
2019-03-11T05:55:12.457Z,100190.55
2019-03-11T05:56:16.524Z,100191.48
2019-03-11T05:57:20.597Z,100192.09
2019-03-11T05:58:24.667Z,100202.02
2019-03-11T05:59:28.822Z,100179.00
2019-03-11T06:00:33.260Z,100198.48
2019-03-11T06:01:37.078Z,100212.81
2019-03-11T06:02:41.457Z,100211.98
2019-03-11T06:03:45.600Z,100208.88
2019-03-11T06:04:49.651Z,100212.30
2019-03-11T06:05:53.867Z,100219.67
2019-03-11T06:06:57.680Z,100217.53
2019-03-11T06:08:02.091Z,100219.62
2019-03-11T06:09:07.753Z,100200.91
2019-03-11T06:10:11.861Z,100204.98
2019-03-11T06:11:15.923Z,100214.83
2019-03-11T06:12:20.629Z,100217.73
2019-03-11T06:13:43.795Z,100215.59
2019-03-11T06:14:47.712Z,100210.11
2019-03-11T06:16:11.041Z,100222.34
2019-03-11T06:17:34.274Z,100204.13
2019-03-11T06:18:57.481Z,100213.22
2019-03-11T06:20:39.799Z,100218.62
2019-03-11T06:21:46.908Z,100223.33
2019-03-11T06:22:51.191Z,100223.91
2019-03-11T06:24:14.353Z,100226.50
2019-03-11T06:25:18.630Z,100226.55
2019-03-11T06:28:04.976Z,100249.01
2019-03-11T06:29:30.798Z,100244.91
2019-03-11T06:30:34.682Z,100242.91
2019-03-11T06:31:39.091Z,100220.86
2019-03-11T06:32:42.925Z,100233.00
2019-03-11T06:33:47.127Z,100220.80
2019-03-11T06:35:10.332Z,100226.15
2019-03-11T06:36:14.549Z,100228.85
2019-03-11T06:37:18.684Z,100232.48
2019-03-11T06:38:41.890Z,100228.07
2019-03-11T06:39:46.004Z,100218.81
2019-03-11T06:40:49.828Z,100228.26
2019-03-11T06:43:16.935Z,100229.47
2019-03-11T06:44:39.960Z,100219.92
2019-03-11T06:45:43.879Z,100226.56
2019-03-11T06:47:07.275Z,100223.27
2019-03-11T06:48:11.514Z,100217.46
2019-03-11T06:49:15.635Z,100233.23
2019-03-11T06:50:19.876Z,100218.16
2019-03-11T06:51:43.030Z,100222.20
2019-03-11T06:53:06.252Z,100207.08
2019-03-11T06:54:10.375Z,100216.11
2019-03-11T06:55:53.849Z,100223.84
2019-03-11T06:57:16.734Z,100211.65
2019-03-11T06:58:20.853Z,100232.30
2019-03-11T06:59:24.664Z,100228.67
2019-03-11T07:00:47.898Z,100241.85
2019-03-11T07:01:51.802Z,100249.95
2019-03-11T07:03:15.157Z,100245.06
2019-03-11T07:04:38.177Z,100244.60
2019-03-11T07:06:01.321Z,100250.47
2019-03-11T07:07:24.821Z,100256.92
2019-03-11T07:08:28.924Z,100262.14
2019-03-11T07:11:15.423Z,100269.63
2019-03-11T07:12:38.614Z,100267.40
2019-03-11T07:13:42.827Z,100259.20
2019-03-11T07:14:46.671Z,100265.30
2019-03-11T07:16:10.334Z,100277.81
2019-03-11T07:17:14.166Z,100271.86
2019-03-11T07:18:18.314Z,100273.84
2019-03-11T07:19:41.593Z,100258.77
2019-03-11T07:20:45.709Z,100261.70
2019-03-11T07:22:08.741Z,100262.70
2019-03-11T07:23:13.302Z,100272.69
2019-03-11T07:24:36.490Z,100277.03
2019-03-11T07:25:59.859Z,100290.53
2019-03-11T07:27:04.187Z,100289.19
2019-03-11T07:28:08.473Z,100298.91
2019-03-11T07:29:31.700Z,100295.75
2019-03-11T07:30:55.206Z,100283.30
2019-03-11T07:33:09.880Z,100300.06
2019-03-11T07:34:14.008Z,100307.70
2019-03-11T07:35:18.274Z,100291.28
2019-03-11T07:36:22.462Z,100288.77
2019-03-11T07:37:45.379Z,100296.04
2019-03-11T07:38:49.487Z,100297.34
2019-03-11T07:40:12.661Z,100293.23
2019-03-11T07:41:16.634Z,100308.92
2019-03-11T07:42:20.743Z,100281.97
2019-03-11T07:43:24.638Z,100309.44
2019-03-11T07:44:28.867Z,100302.34
2019-03-11T07:45:33.080Z,100307.72
2019-03-11T07:46:56.316Z,100306.50
2019-03-11T07:48:19.325Z,100305.16
2019-03-11T07:49:42.327Z,100317.44
2019-03-11T07:51:05.343Z,100325.34
2019-03-11T07:52:28.457Z,100311.97
2019-03-11T07:53:32.619Z,100299.58
2019-03-11T07:54:36.708Z,100297.58
2019-03-11T07:55:40.850Z,100299.41
2019-03-11T07:56:44.668Z,100307.40
2019-03-11T07:57:48.497Z,100300.65
2019-03-11T07:58:52.322Z,100299.16
2019-03-11T07:59:56.487Z,100289.60
2019-03-11T08:01:00.659Z,100298.81
2019-03-11T08:02:04.626Z,100303.97
2019-03-11T08:03:08.883Z,100291.23
2019-03-11T08:04:12.952Z,100301.47
2019-03-11T08:05:16.920Z,100297.88
2019-03-11T08:06:20.983Z,100298.77
2019-03-11T08:07:27.335Z,100304.91
2019-03-11T08:08:30.738Z,100292.44
2019-03-11T08:09:38.053Z,100298.52
2019-03-11T08:10:40.237Z,100313.06
2019-03-11T08:11:44.301Z,100301.52
2019-03-11T08:12:48.286Z,100303.86
2019-03-11T08:13:52.105Z,100315.08
2019-03-11T08:14:56.432Z,100321.48
2019-03-11T08:16:00.567Z,100307.03
2019-03-11T08:17:04.456Z,100311.66
2019-03-11T08:18:10.698Z,100319.41
2019-03-11T08:19:14.483Z,100312.74
2019-03-11T08:22:01.047Z,100325.53
2019-03-11T08:23:24.093Z,100315.30
2019-03-11T08:24:47.562Z,100317.81
2019-03-11T08:26:10.685Z,100304.81
2019-03-11T08:27:15.250Z,100327.43
2019-03-11T08:28:38.499Z,100317.49
2019-03-11T08:29:42.641Z,100320.36
2019-03-11T08:31:05.855Z,100305.34
2019-03-11T08:32:09.749Z,100331.07
2019-03-11T08:33:13.910Z,100309.80
2019-03-11T08:34:17.804Z,100321.75
2019-03-11T08:35:40.817Z,100341.04
2019-03-11T08:36:45.227Z,100323.16
2019-03-11T08:38:08.277Z,100331.16
2019-03-11T08:39:31.285Z,100334.14
2019-03-11T08:40:35.116Z,100318.85
2019-03-11T08:41:58.471Z,100325.77
2019-03-11T08:44:25.821Z,100350.25
2019-03-11T08:45:30.065Z,100338.23
2019-03-11T08:46:53.269Z,100339.55
2019-03-11T08:48:16.640Z,100335.13
2019-03-11T08:49:20.476Z,100350.05
2019-03-11T08:52:06.578Z,100331.44
2019-03-11T08:54:33.366Z,100326.08
2019-03-11T08:57:00.559Z,100327.17
2019-03-11T08:58:23.576Z,100348.16
2019-03-11T08:59:47.026Z,100336.66
2019-03-11T09:00:51.192Z,100347.69
2019-03-11T09:01:55.096Z,100344.31
2019-03-11T09:02:58.930Z,100335.08
2019-03-11T09:04:22.548Z,100312.41
2019-03-11T09:07:10.288Z,100334.63
2019-03-11T09:08:14.105Z,100336.75
2019-03-11T09:09:17.946Z,100343.42
2019-03-11T09:10:41.288Z,100344.72
2019-03-11T09:12:04.419Z,100352.42
2019-03-11T09:13:08.247Z,100342.37
2019-03-11T09:14:12.422Z,100350.58
2019-03-11T09:15:16.400Z,100348.28
2019-03-11T09:16:20.220Z,100343.40
2019-03-11T09:17:24.292Z,100342.52
2019-03-11T09:18:28.306Z,100346.11
2019-03-11T09:19:32.138Z,100349.17
2019-03-11T09:20:36.034Z,100357.64
2019-03-11T09:21:40.166Z,100351.55
2019-03-11T09:22:44.313Z,100363.05
2019-03-11T09:23:48.722Z,100359.67
2019-03-11T09:24:53.117Z,100371.31
2019-03-11T09:25:57.255Z,100381.78
2019-03-11T09:27:01.401Z,100363.05
2019-03-11T09:28:05.376Z,100366.43
2019-03-11T09:29:09.420Z,100355.45
2019-03-11T09:30:16.199Z,100356.28
2019-03-11T09:31:20.024Z,100357.52
2019-03-11T09:32:23.991Z,100375.38
2019-03-11T09:33:27.893Z,100353.25
2019-03-11T09:34:31.717Z,100356.92
2019-03-11T09:35:35.687Z,100358.90
2019-03-11T09:36:40.080Z,100369.30
2019-03-11T09:37:44.673Z,100372.16
2019-03-11T09:38:48.555Z,100372.16
2019-03-11T09:40:31.285Z,100360.06
2019-03-11T09:41:35.105Z,100355.53
2019-03-11T09:42:39.169Z,100354.09
2019-03-11T09:43:43.319Z,100361.27
2019-03-11T09:45:06.354Z,100380.22
2019-03-11T09:47:52.697Z,100360.85
2019-03-11T09:48:56.875Z,100367.03
2019-03-11T09:50:00.794Z,100379.56
2019-03-11T09:51:23.815Z,100369.81
2019-03-11T09:52:27.791Z,100363.23
2019-03-11T09:53:50.757Z,100352.80
2019-03-11T09:54:54.601Z,100367.85
2019-03-11T09:55:58.525Z,100358.14
2019-03-11T09:58:44.559Z,100355.37
2019-03-11T09:59:48.399Z,100369.63
2019-03-11T10:02:34.375Z,100365.90
2019-03-11T10:03:38.285Z,100371.31
2019-03-11T10:04:42.212Z,100365.58
2019-03-11T10:06:05.108Z,100358.34
2019-03-11T10:08:51.558Z,100356.66
2019-03-11T10:09:55.408Z,100350.56
2019-03-11T10:11:18.427Z,100377.98
2019-03-11T10:12:41.963Z,100378.95
2019-03-11T10:13:45.842Z,100365.20
2019-03-11T10:14:50.133Z,100366.27
2019-03-11T10:16:13.045Z,100364.91
2019-03-11T10:17:17.279Z,100368.18
2019-03-11T10:18:40.843Z,100354.59
2019-03-11T10:20:03.925Z,100356.31
2019-03-11T10:21:07.837Z,100356.95
2019-03-11T10:22:11.963Z,100355.45
2019-03-11T10:23:35.263Z,100368.12
2019-03-11T10:24:39.720Z,100371.42
2019-03-11T10:26:03.010Z,100387.31
2019-03-11T10:27:25.973Z,100394.49
2019-03-11T10:28:30.472Z,100402.77
2019-03-11T10:29:53.623Z,100409.91
2019-03-11T10:31:16.978Z,100427.50
2019-03-11T10:32:21.724Z,100448.80
2019-03-11T10:33:25.629Z,100446.82
2019-03-11T10:34:48.976Z,100448.33
2019-03-11T10:35:53.258Z,100441.97
2019-03-11T10:37:16.587Z,100446.02
2019-03-11T10:38:39.606Z,100439.88
2019-03-11T10:39:43.440Z,100437.91
2019-03-11T10:40:48.167Z,100432.63
2019-03-11T10:42:11.399Z,100436.05
2019-03-11T10:43:34.695Z,100435.01
2019-03-11T10:44:57.806Z,100447.17
2019-03-11T10:46:21.073Z,100437.88
2019-03-11T10:47:24.977Z,100438.97
2019-03-11T10:48:48.000Z,100441.67
2019-03-11T10:51:34.357Z,100436.16
2019-03-11T10:52:38.579Z,100434.69
2019-03-11T10:56:50.225Z,100437.39
2019-03-11T10:58:13.190Z,100452.07
2019-03-11T10:59:36.537Z,100448.78
2019-03-11T11:00:40.839Z,100450.45
2019-03-11T11:02:04.133Z,100451.34
2019-03-11T11:03:08.350Z,100453.10
2019-03-11T11:04:12.258Z,100446.34
2019-03-11T11:05:35.283Z,100443.10
2019-03-11T11:06:39.959Z,100465.73
2019-03-11T11:07:43.865Z,100457.61
2019-03-11T11:08:47.769Z,100451.38
2019-03-11T11:09:51.676Z,100454.81
2019-03-11T11:10:55.745Z,100452.58
2019-03-11T11:12:19.069Z,100457.63
2019-03-11T11:13:22.971Z,100472.05
2019-03-11T11:14:26.863Z,100472.88
2019-03-11T11:15:30.990Z,100464.97
2019-03-11T11:16:35.629Z,100463.67
2019-03-11T11:18:49.354Z,100483.34
2019-03-11T11:21:35.849Z,100458.49
2019-03-11T11:22:39.834Z,100463.41
2019-03-11T11:24:02.936Z,100461.17
2019-03-11T11:25:08.148Z,100454.05
2019-03-11T11:26:12.313Z,100463.05
2019-03-11T11:27:16.211Z,100469.91
2019-03-11T11:28:20.509Z,100452.05
2019-03-11T11:29:24.331Z,100454.75
2019-03-11T11:30:28.668Z,100459.64
2019-03-11T11:31:32.483Z,100455.45
2019-03-11T11:32:37.057Z,100451.02
2019-03-11T11:33:41.183Z,100456.55
2019-03-11T11:34:45.088Z,100453.98
2019-03-11T11:35:48.920Z,100465.48
2019-03-11T11:37:12.125Z,100458.59
2019-03-11T11:38:16.036Z,100441.13
2019-03-11T11:39:20.330Z,100448.31
2019-03-11T11:40:24.509Z,100458.47
2019-03-11T11:41:28.432Z,100467.77
2019-03-11T11:42:32.763Z,100476.21
2019-03-11T11:43:36.752Z,100473.38
2019-03-11T11:44:40.826Z,100477.84
2019-03-11T11:45:44.726Z,100507.93
2019-03-11T11:46:48.957Z,100539.97
2019-03-11T11:47:53.261Z,100536.66
2019-03-11T11:51:56.670Z,100542.78
2019-03-11T11:53:19.940Z,100535.71
2019-03-11T11:54:23.904Z,100535.61
2019-03-11T11:55:27.879Z,100526.71
2019-03-11T11:56:50.806Z,100540.61
2019-03-11T11:57:55.079Z,100541.03
2019-03-11T11:58:58.987Z,100538.20
2019-03-11T12:00:02.974Z,100544.14
2019-03-11T12:01:06.944Z,100538.23
2019-03-11T12:02:10.913Z,100538.44
2019-03-11T12:03:14.814Z,100528.30
2019-03-11T12:04:18.943Z,100527.11
2019-03-11T12:05:22.907Z,100533.55
2019-03-11T12:06:26.794Z,100529.27
2019-03-11T12:07:31.039Z,100526.39
2019-03-11T12:08:35.018Z,100517.21
2019-03-11T12:09:39.076Z,100517.87
2019-03-11T12:10:43.221Z,100520.20
2019-03-11T12:11:47.352Z,100514.80
2019-03-11T12:12:51.319Z,100508.36
2019-03-11T12:13:55.395Z,100513.06
2019-03-11T12:14:59.365Z,100514.23
2019-03-11T12:16:03.327Z,100516.60
2019-03-11T12:17:07.290Z,100527.78
2019-03-11T12:18:11.758Z,100527.84
2019-03-11T12:19:15.590Z,100526.38
2019-03-11T12:20:21.118Z,100528.20
2019-03-11T12:21:25.325Z,100536.64
2019-03-11T12:22:29.541Z,100536.33
2019-03-11T12:23:33.760Z,100538.33
2019-03-11T12:24:37.724Z,100541.59
2019-03-11T12:26:00.812Z,100551.47
2019-03-11T12:28:27.746Z,100549.88
2019-03-11T12:29:31.653Z,100536.52
2019-03-11T12:30:35.895Z,100533.11
2019-03-11T12:31:40.342Z,100545.17
2019-03-11T12:32:44.721Z,100545.45
2019-03-11T12:33:48.700Z,100540.79
2019-03-11T12:34:53.210Z,100538.50
2019-03-11T12:35:57.423Z,100529.43
2019-03-11T12:37:02.253Z,100534.09
2019-03-11T12:38:06.729Z,100527.89
2019-03-11T12:39:30.269Z,100530.10
2019-03-11T12:40:34.686Z,100528.53
2019-03-11T12:41:58.043Z,100520.50
2019-03-11T12:43:21.132Z,100510.89
2019-03-11T12:44:25.571Z,100507.36
2019-03-11T12:45:29.822Z,100503.79
2019-03-11T12:46:53.086Z,100495.55
2019-03-11T12:47:56.985Z,100496.98
2019-03-11T12:49:01.381Z,100496.45
2019-03-11T12:50:45.298Z,100495.93
2019-03-11T12:51:50.349Z,100494.69
2019-03-11T12:52:55.181Z,100506.12
2019-03-11T12:53:59.011Z,100519.09
2019-03-11T12:55:03.167Z,100529.78
2019-03-11T12:56:26.181Z,100509.27
2019-03-11T12:57:30.422Z,100522.70
2019-03-11T12:58:41.547Z,100522.56
2019-03-11T12:59:40.982Z,100528.42
2019-03-11T13:01:05.424Z,100534.82
2019-03-11T13:02:28.967Z,100527.89
2019-03-11T13:03:33.433Z,100520.91
2019-03-11T13:04:56.804Z,100535.73
2019-03-11T13:06:00.882Z,100546.38
2019-03-11T13:07:23.848Z,100540.41
2019-03-11T13:08:27.936Z,100546.03
2019-03-11T13:09:32.419Z,100548.55
2019-03-11T13:10:55.319Z,100552.72
2019-03-11T13:12:18.327Z,100546.70
2019-03-11T13:13:22.542Z,100565.81
2019-03-11T13:14:45.897Z,100562.02
2019-03-11T13:16:09.096Z,100568.52
2019-03-11T13:17:12.990Z,100563.73
2019-03-11T13:18:55.127Z,100567.75
2019-03-11T13:19:59.810Z,100567.54
2019-03-11T13:21:08.353Z,100552.02
2019-03-11T13:22:12.321Z,100557.95
2019-03-11T13:23:16.388Z,100563.78
2019-03-11T13:24:20.362Z,100563.47
2019-03-11T13:25:24.355Z,100568.41
2019-03-11T13:26:28.575Z,100573.57
2019-03-11T13:27:32.718Z,100573.98
2019-03-11T13:28:36.866Z,100555.70
2019-03-11T13:29:40.938Z,100553.77
2019-03-11T13:30:44.846Z,100558.86
2019-03-11T13:31:48.811Z,100562.13
2019-03-11T13:32:52.701Z,100565.92
2019-03-11T13:33:56.522Z,100558.07
2019-03-11T13:35:00.671Z,100558.32
2019-03-11T13:36:06.898Z,100561.09
2019-03-11T13:37:11.116Z,100559.56
2019-03-11T13:38:15.013Z,100561.27
2019-03-11T13:39:19.085Z,100572.09
2019-03-11T13:40:23.552Z,100573.92
2019-03-11T13:41:27.710Z,100567.14
2019-03-11T13:42:31.933Z,100579.70
2019-03-11T13:43:36.430Z,100578.07
2019-03-11T13:44:40.587Z,100576.66
2019-03-11T13:45:44.790Z,100581.55
2019-03-11T13:46:48.958Z,100582.40
2019-03-11T13:47:53.179Z,100582.31
2019-03-11T13:48:57.399Z,100579.77
2019-03-11T13:50:01.905Z,100577.19
2019-03-11T13:51:06.307Z,100575.45
2019-03-11T13:52:10.347Z,100568.52
2019-03-11T13:53:15.240Z,100570.41
2019-03-11T13:54:19.884Z,100580.78
2019-03-11T13:55:23.776Z,100578.07
2019-03-11T13:57:09.992Z,100582.23
2019-03-11T13:59:37.160Z,100568.67
2019-03-11T14:00:41.147Z,100568.05
2019-03-11T14:01:45.328Z,100576.53
2019-03-11T14:02:49.334Z,100573.33
2019-03-11T14:03:53.479Z,100568.98
2019-03-11T14:04:57.673Z,100571.69
2019-03-11T14:06:01.493Z,100571.16
2019-03-11T14:07:24.385Z,100570.75
2019-03-11T14:08:28.480Z,100559.55
2019-03-11T14:09:33.197Z,100577.17
2019-03-11T14:10:37.033Z,100580.23
2019-03-11T14:11:41.178Z,100571.28
2019-03-11T14:12:45.082Z,100569.88
2019-03-11T14:15:12.162Z,100580.61
2019-03-11T14:17:40.009Z,100581.18
2019-03-11T14:18:44.468Z,100588.48
2019-03-11T14:19:49.038Z,100587.87
2019-03-11T14:21:12.226Z,100588.19
2019-03-11T14:22:16.397Z,100586.36
2019-03-11T14:24:43.583Z,100596.48
2019-03-11T14:25:47.562Z,100594.71
2019-03-11T14:26:51.750Z,100614.14
2019-03-11T14:27:55.996Z,100621.91
2019-03-11T14:28:59.896Z,100644.57
2019-03-11T14:30:22.836Z,100677.33
2019-03-11T14:31:26.968Z,100641.23